createdAt,value
2022-08-22T00:00:58.085Z,69.12
2022-08-22T00:01:57.900Z,69.15
2022-08-22T00:03:01.342Z,55.53
2022-08-22T00:03:17.386Z,69.17
2022-08-22T00:03:58.845Z,69.07
2022-08-22T00:04:57.856Z,69.09
2022-08-22T00:05:58.058Z,69.17
2022-08-22T00:06:57.796Z,69.38
2022-08-22T00:07:57.958Z,69.36
2022-08-22T00:08:57.794Z,69.44
2022-08-22T00:09:57.776Z,69.48
2022-08-22T00:10:57.771Z,69.73
2022-08-22T00:11:57.906Z,69.95
2022-08-22T00:12:57.736Z,69.83
2022-08-22T00:14:01.446Z,69.85
2022-08-22T00:14:57.716Z,69.91
2022-08-22T00:15:57.726Z,70.03
2022-08-22T00:16:57.883Z,70.23
2022-08-22T00:17:57.981Z,70.19
2022-08-22T00:18:57.684Z,70.26
2022-08-22T00:19:57.677Z,70.39
2022-08-22T00:20:57.656Z,70.42
2022-08-22T00:21:57.842Z,70.37
2022-08-22T00:22:57.655Z,70.33
2022-08-22T00:23:57.618Z,70.49
2022-08-22T00:24:57.646Z,70.47
2022-08-22T00:25:57.601Z,70.53
2022-08-22T00:26:57.737Z,70.59
2022-08-22T00:27:57.757Z,70.78
2022-08-22T00:28:57.574Z,70.68
2022-08-22T00:29:57.571Z,71.03
2022-08-22T00:30:57.559Z,71.05
2022-08-22T00:31:57.759Z,71.14
2022-08-22T00:32:57.532Z,70.95
2022-08-22T00:33:57.511Z,71.05
2022-08-22T00:34:57.515Z,71.08
2022-08-22T00:35:57.530Z,71.30
2022-08-22T00:36:57.487Z,71.19
2022-08-22T00:37:57.820Z,71.05
2022-08-22T00:38:57.479Z,71.14
2022-08-22T00:39:57.488Z,71.17
2022-08-22T00:40:57.449Z,71.31
2022-08-22T00:41:57.450Z,71.26
2022-08-22T00:42:57.576Z,71.27
2022-08-22T00:43:57.413Z,71.09
2022-08-22T00:44:57.388Z,70.88
2022-08-22T00:45:57.391Z,70.96
2022-08-22T00:46:57.367Z,71.12
2022-08-22T00:47:57.679Z,71.14
2022-08-22T00:48:57.342Z,71.04
2022-08-22T00:49:57.359Z,70.91
2022-08-22T00:50:57.539Z,70.96
2022-08-22T00:51:57.317Z,70.86
2022-08-22T00:52:57.313Z,70.99
2022-08-22T00:53:57.301Z,71.17
2022-08-22T00:54:57.287Z,71.13
2022-08-22T00:55:57.999Z,71.16
2022-08-22T00:56:57.258Z,71.23
2022-08-22T00:57:57.309Z,71.23
2022-08-22T00:58:57.248Z,71.36
2022-08-22T00:59:57.227Z,71.46
2022-08-22T01:00:57.286Z,71.49
2022-08-22T01:01:57.639Z,71.41
2022-08-22T01:02:57.212Z,71.42
2022-08-22T01:03:57.188Z,71.20
2022-08-22T01:04:57.183Z,71.33
2022-08-22T01:05:57.197Z,71.26
2022-08-22T01:06:57.166Z,71.29
2022-08-22T01:07:57.622Z,71.35
2022-08-22T01:08:57.130Z,71.45
2022-08-22T01:09:57.119Z,71.52
2022-08-22T01:10:57.115Z,71.63
2022-08-22T01:11:57.113Z,71.38
2022-08-22T01:12:57.087Z,71.22
2022-08-22T01:13:57.246Z,71.22
2022-08-22T01:14:57.068Z,71.18
2022-08-22T01:15:57.064Z,71.24
2022-08-22T01:16:57.048Z,71.36
2022-08-22T01:17:57.303Z,71.37
2022-08-22T01:18:57.259Z,71.49
2022-08-22T01:19:57.018Z,71.52
2022-08-22T01:20:57.007Z,71.83
2022-08-22T01:21:57.002Z,71.45
2022-08-22T01:22:57.001Z,71.31
2022-08-22T01:23:56.974Z,71.26
2022-08-22T01:24:57.148Z,71.30
2022-08-22T01:25:56.949Z,71.35
2022-08-22T01:26:56.956Z,71.37
2022-08-22T01:27:57.047Z,71.23
2022-08-22T01:28:56.906Z,71.55
2022-08-22T01:29:56.906Z,71.76
2022-08-22T01:30:57.051Z,71.37
2022-08-22T01:31:56.883Z,71.39
2022-08-22T01:32:56.994Z,71.52
2022-08-22T01:33:56.865Z,71.37
2022-08-22T01:34:56.853Z,71.25
2022-08-22T01:35:56.851Z,71.25
2022-08-22T01:36:57.009Z,71.34
2022-08-22T01:37:57.038Z,71.46
2022-08-22T01:38:56.819Z,71.44
2022-08-22T01:39:56.865Z,71.47
2022-08-22T01:40:56.781Z,71.50
2022-08-22T01:41:56.780Z,71.58
2022-08-22T01:42:56.922Z,71.58
2022-08-22T01:44:00.519Z,71.57
2022-08-22T01:44:56.743Z,71.44
2022-08-22T01:45:56.731Z,71.44
2022-08-22T01:46:56.722Z,71.61
2022-08-22T01:47:56.722Z,71.64
2022-08-22T01:48:56.872Z,71.80
2022-08-22T01:49:56.703Z,71.77
2022-08-22T01:50:56.683Z,71.74
2022-08-22T01:51:56.662Z,71.95
2022-08-22T01:52:56.652Z,72.09
2022-08-22T01:53:56.651Z,72.01
2022-08-22T01:54:56.813Z,72.09
2022-08-22T01:55:56.632Z,72.10
2022-08-22T01:56:56.623Z,72.05
2022-08-22T01:57:56.687Z,71.99
2022-08-22T01:58:56.583Z,71.95
2022-08-22T01:59:56.728Z,71.96
2022-08-22T02:00:56.588Z,72.00
2022-08-22T02:01:56.566Z,71.96
2022-08-22T02:02:56.543Z,71.98
2022-08-22T02:03:56.541Z,72.18
2022-08-22T02:06:14.783Z,71.70
2022-08-22T02:07:14.408Z,72.26
2022-08-22T02:08:14.392Z,72.21
2022-08-22T02:09:14.387Z,72.39
2022-08-22T02:10:14.780Z,72.14
2022-08-22T02:11:14.370Z,72.00
2022-08-22T02:12:21.652Z,72.03
2022-08-22T02:13:15.346Z,72.00
2022-08-22T02:14:14.327Z,72.07
2022-08-22T02:15:14.323Z,72.17
2022-08-22T02:16:14.997Z,72.26
2022-08-22T02:17:14.321Z,72.22
2022-08-22T02:18:14.328Z,72.26
2022-08-22T02:19:14.280Z,72.28
2022-08-22T02:20:14.292Z,72.38
2022-08-22T02:21:14.402Z,72.52
2022-08-22T02:22:14.263Z,72.48
2022-08-22T02:23:14.237Z,72.57
2022-08-22T02:24:14.232Z,72.65
2022-08-22T02:25:14.219Z,72.59
2022-08-22T02:26:14.353Z,72.61
2022-08-22T02:27:14.225Z,72.92
2022-08-22T02:28:14.176Z,72.73
2022-08-22T02:29:14.174Z,72.66
2022-08-22T02:30:14.157Z,72.57
2022-08-22T02:31:16.668Z,72.62
2022-08-22T02:32:14.143Z,72.73
2022-08-22T02:33:14.136Z,72.77
2022-08-22T02:34:14.143Z,72.84
2022-08-22T02:35:14.104Z,72.98
2022-08-22T02:36:14.101Z,72.82
2022-08-22T02:37:14.269Z,72.86
2022-08-22T02:38:14.071Z,72.87
2022-08-22T02:39:14.082Z,72.85
2022-08-22T02:40:14.150Z,72.63
2022-08-22T02:41:14.047Z,72.73
2022-08-22T02:42:14.575Z,72.76
2022-08-22T02:43:14.029Z,72.86
2022-08-22T02:44:14.005Z,72.85
2022-08-22T02:45:14.009Z,72.81
2022-08-22T02:46:13.983Z,72.86
2022-08-22T02:47:13.988Z,72.85
2022-08-22T02:48:14.123Z,72.89
2022-08-22T02:49:13.968Z,72.86
2022-08-22T02:50:13.943Z,72.92
2022-08-22T02:51:13.930Z,72.70
2022-08-22T02:52:13.921Z,72.81
2022-08-22T02:53:14.069Z,72.89
2022-08-22T02:54:13.920Z,72.98
2022-08-22T02:55:13.930Z,73.03
2022-08-22T02:56:13.873Z,73.02
2022-08-22T02:57:14.217Z,72.95
2022-08-22T02:58:14.193Z,72.93
2022-08-22T02:59:13.842Z,72.98
2022-08-22T03:00:31.107Z,73.00
2022-08-22T03:01:14.855Z,73.05
2022-08-22T03:02:13.831Z,73.29
2022-08-22T03:03:13.809Z,73.34
2022-08-22T03:04:13.948Z,73.43
2022-08-22T03:05:13.788Z,73.46
2022-08-22T03:06:13.766Z,73.52
2022-08-22T03:07:13.764Z,73.45
2022-08-22T03:08:13.758Z,73.35
2022-08-22T03:09:13.889Z,73.35
2022-08-22T03:10:13.772Z,73.44
2022-08-22T03:11:13.719Z,73.55
2022-08-22T03:12:13.716Z,73.53
2022-08-22T03:13:13.696Z,73.51
2022-08-22T03:14:13.850Z,73.67
2022-08-22T03:15:13.681Z,73.69
2022-08-22T03:16:13.668Z,73.57
2022-08-22T03:17:13.681Z,73.53
2022-08-22T03:18:13.664Z,73.63
2022-08-22T03:19:18.664Z,73.69
2022-08-22T03:20:14.620Z,73.75
2022-08-22T03:21:13.610Z,73.76
2022-08-22T03:22:13.610Z,73.79
2022-08-22T03:23:13.593Z,73.83
2022-08-22T03:24:13.572Z,73.76
2022-08-22T03:25:13.731Z,73.76
2022-08-22T03:26:13.566Z,73.85
2022-08-22T03:27:13.560Z,73.87
2022-08-22T03:28:14.529Z,73.82
2022-08-22T03:29:13.526Z,73.84
2022-08-22T03:30:13.661Z,73.95
2022-08-22T03:31:13.511Z,73.99
2022-08-22T03:32:13.491Z,73.94
2022-08-22T03:33:13.476Z,73.98
2022-08-22T03:34:13.468Z,74.03
2022-08-22T03:35:13.621Z,73.96
2022-08-22T03:36:13.450Z,73.93
2022-08-22T03:37:13.453Z,73.95
2022-08-22T03:38:13.430Z,73.89
2022-08-22T03:39:17.114Z,73.96
2022-08-22T03:40:13.602Z,74.03
2022-08-22T03:41:13.401Z,73.96
2022-08-22T03:42:13.375Z,74.16
2022-08-22T03:43:13.381Z,74.12
2022-08-22T03:44:13.350Z,74.04
2022-08-22T03:45:13.349Z,74.05
2022-08-22T03:46:13.669Z,73.98
2022-08-22T03:47:13.341Z,74.25
2022-08-22T03:48:13.325Z,74.25
2022-08-22T03:49:13.301Z,74.27
2022-08-22T03:50:13.299Z,74.29
2022-08-22T03:51:13.290Z,74.23
2022-08-22T03:52:13.431Z,74.36
2022-08-22T03:53:18.396Z,74.49
2022-08-22T03:54:14.255Z,74.39
2022-08-22T03:55:13.240Z,74.36
2022-08-22T03:56:13.253Z,74.30
2022-08-22T03:57:13.217Z,74.33
2022-08-22T03:58:19.123Z,74.36
2022-08-22T03:59:14.212Z,74.22
2022-08-22T04:00:13.198Z,74.38
2022-08-22T04:01:13.213Z,74.54
2022-08-22T04:02:42.061Z,74.42
2022-08-22T04:03:14.447Z,74.56
2022-08-22T04:04:13.142Z,74.59
2022-08-22T04:05:13.142Z,74.48
2022-08-22T04:06:13.123Z,74.39
2022-08-22T04:07:28.018Z,74.30
2022-08-22T04:08:14.101Z,74.46
2022-08-22T04:09:13.266Z,74.40
2022-08-22T04:10:13.082Z,74.46
2022-08-22T04:11:13.083Z,74.62
2022-08-22T04:12:13.077Z,74.57
2022-08-22T04:13:13.054Z,74.56
2022-08-22T04:14:13.044Z,74.68
2022-08-22T04:15:13.203Z,74.62
2022-08-22T04:16:13.300Z,74.55
2022-08-22T04:17:13.032Z,74.53
2022-08-22T04:18:12.994Z,74.67
2022-08-22T04:19:12.987Z,74.61
2022-08-22T04:20:12.974Z,74.66
2022-08-22T04:21:13.113Z,74.59
2022-08-22T04:22:13.098Z,74.43
2022-08-22T04:23:12.933Z,74.31
2022-08-22T04:24:12.936Z,74.30
2022-08-22T04:25:12.920Z,74.33
2022-08-22T04:26:12.971Z,74.31
2022-08-22T04:27:13.060Z,74.39
2022-08-22T04:28:12.879Z,74.31
2022-08-22T04:29:12.875Z,74.46
2022-08-22T04:30:12.873Z,74.46
2022-08-22T04:31:12.853Z,74.62
2022-08-22T04:32:14.749Z,74.66
2022-08-22T04:33:12.986Z,74.67
2022-08-22T04:34:12.822Z,74.81
2022-08-22T04:35:12.811Z,74.96
2022-08-22T04:36:12.808Z,74.91
2022-08-22T04:37:12.788Z,74.98
2022-08-22T04:38:12.923Z,74.77
2022-08-22T04:39:12.764Z,74.69
2022-08-22T04:40:12.769Z,74.78
2022-08-22T04:41:12.752Z,74.58
2022-08-22T04:42:31.766Z,74.51
2022-08-22T04:43:13.873Z,74.45
2022-08-22T04:44:13.439Z,74.49
2022-08-22T04:45:12.707Z,74.59
2022-08-22T04:46:12.685Z,74.47
2022-08-22T04:47:12.674Z,74.43
2022-08-22T04:48:12.665Z,74.46
2022-08-22T04:49:12.804Z,74.50
2022-08-22T04:50:12.639Z,74.78
2022-08-22T04:51:12.636Z,74.79
2022-08-22T04:52:12.622Z,74.74
2022-08-22T04:53:12.615Z,74.80
2022-08-22T04:54:12.749Z,74.71
2022-08-22T04:55:12.593Z,74.72
2022-08-22T04:56:12.578Z,74.81
2022-08-22T04:57:12.566Z,74.87
2022-08-22T04:58:12.553Z,75.04
2022-08-22T04:59:12.549Z,75.11
2022-08-22T05:00:12.692Z,75.42
2022-08-22T05:01:12.531Z,75.39
2022-08-22T05:02:12.542Z,75.23
2022-08-22T05:03:12.504Z,75.07
2022-08-22T05:04:12.494Z,75.11
2022-08-22T05:05:13.214Z,75.20
2022-08-22T05:06:12.473Z,75.10
2022-08-22T05:07:12.465Z,75.14
2022-08-22T05:08:12.460Z,75.06
2022-08-22T05:09:15.997Z,74.95
2022-08-22T05:10:12.735Z,75.07
2022-08-22T05:11:12.419Z,75.17
2022-08-22T05:12:12.417Z,75.23
2022-08-22T05:13:12.388Z,75.26
2022-08-22T05:14:12.399Z,75.31
2022-08-22T05:15:12.407Z,75.26
2022-08-22T05:16:12.697Z,75.39
2022-08-22T05:17:12.357Z,75.58
2022-08-22T05:18:12.344Z,75.61
2022-08-22T05:19:16.459Z,75.56
2022-08-22T05:20:12.325Z,75.36
2022-08-22T05:21:13.944Z,75.56
2022-08-22T05:22:12.456Z,75.69
2022-08-22T05:23:17.049Z,75.52
2022-08-22T05:24:13.298Z,75.39
2022-08-22T05:25:12.277Z,75.26
2022-08-22T05:26:12.255Z,75.30
2022-08-22T05:27:12.246Z,75.40
2022-08-22T05:28:12.436Z,75.26
2022-08-22T05:29:12.216Z,75.14
2022-08-22T05:30:12.205Z,75.14
2022-08-22T05:31:12.206Z,74.88
2022-08-22T05:32:12.222Z,74.72
2022-08-22T05:33:12.185Z,74.71
2022-08-22T05:34:12.343Z,74.72
2022-08-22T05:35:12.181Z,74.72
2022-08-22T05:36:12.154Z,74.74
2022-08-22T05:37:12.145Z,74.56
2022-08-22T05:38:12.176Z,74.69
2022-08-22T05:39:12.275Z,74.72
2022-08-22T05:40:12.141Z,74.75
2022-08-22T05:41:12.108Z,74.67
2022-08-22T05:42:12.085Z,74.39
2022-08-22T05:43:12.117Z,74.58
2022-08-22T05:44:12.310Z,74.44
2022-08-22T05:45:12.316Z,74.31
2022-08-22T05:46:12.055Z,74.13
2022-08-22T05:47:12.049Z,74.13
2022-08-22T05:48:12.033Z,74.08
2022-08-22T05:49:12.017Z,73.76
2022-08-22T05:50:12.165Z,73.64
2022-08-22T05:51:12.001Z,73.88
2022-08-22T05:52:11.994Z,73.86
2022-08-22T05:53:11.965Z,73.54
2022-08-22T05:54:11.999Z,73.46
2022-08-22T05:55:11.964Z,73.74
2022-08-22T05:56:12.098Z,73.70
2022-08-22T05:57:12.084Z,73.60
2022-08-22T05:58:11.918Z,73.52
2022-08-22T05:59:11.895Z,73.39
2022-08-22T06:00:11.918Z,73.41
2022-08-22T06:01:11.876Z,73.30
2022-08-22T06:02:12.241Z,73.24
2022-08-22T06:03:11.857Z,73.05
2022-08-22T06:04:11.835Z,72.94
2022-08-22T06:05:12.257Z,73.18
2022-08-22T06:06:11.825Z,72.93
2022-08-22T06:07:11.825Z,72.84
2022-08-22T06:08:11.956Z,73.06
2022-08-22T06:09:11.786Z,72.96
2022-08-22T06:10:11.781Z,72.95
2022-08-22T06:11:11.766Z,72.82
2022-08-22T06:12:18.237Z,72.84
2022-08-22T06:13:13.024Z,72.78
2022-08-22T06:14:13.008Z,72.62
2022-08-22T06:15:12.549Z,72.79
2022-08-22T06:16:11.716Z,72.58
2022-08-22T06:17:11.706Z,72.28
2022-08-22T06:18:11.708Z,72.42
2022-08-22T06:19:19.843Z,72.23
2022-08-22T06:20:12.679Z,72.10
2022-08-22T06:21:11.661Z,71.83
2022-08-22T06:22:11.767Z,72.03
2022-08-22T06:23:12.642Z,72.03
2022-08-22T06:24:11.626Z,72.04
2022-08-22T06:25:11.774Z,71.92
2022-08-22T06:26:20.514Z,71.87
2022-08-22T06:27:12.589Z,71.76
2022-08-22T06:28:11.594Z,71.50
2022-08-22T06:29:11.576Z,71.62
2022-08-22T06:30:11.849Z,71.72
2022-08-22T06:31:11.557Z,71.76
2022-08-22T06:32:11.538Z,71.47
2022-08-22T06:33:12.493Z,71.28
2022-08-22T06:34:11.516Z,71.18
2022-08-22T06:35:11.687Z,71.20
2022-08-22T06:36:11.508Z,71.54
2022-08-22T06:37:11.486Z,71.15
2022-08-22T06:38:11.494Z,70.92
2022-08-22T06:39:11.500Z,70.80
2022-08-22T06:40:11.479Z,70.76
2022-08-22T06:41:11.598Z,70.65
2022-08-22T06:42:16.006Z,70.82
2022-08-22T06:43:11.418Z,70.81
2022-08-22T06:44:11.408Z,70.77
2022-08-22T06:45:11.407Z,70.93
2022-08-22T06:46:11.389Z,70.64
2022-08-22T06:47:11.601Z,70.36
2022-08-22T06:48:11.367Z,70.13
2022-08-22T06:49:11.355Z,70.23
2022-08-22T06:50:13.863Z,70.19
2022-08-22T06:51:11.335Z,69.98
2022-08-22T06:52:11.328Z,70.13
2022-08-22T06:53:11.672Z,70.11
2022-08-22T06:54:11.321Z,70.28
2022-08-22T06:55:11.303Z,69.83
2022-08-22T06:56:11.288Z,69.74
2022-08-22T06:57:11.271Z,69.68
2022-08-22T06:58:11.279Z,69.45
2022-08-22T06:59:11.407Z,69.37
2022-08-22T07:00:11.299Z,69.22
2022-08-22T07:01:11.615Z,69.15
2022-08-22T07:02:11.222Z,69.16
2022-08-22T07:03:11.210Z,68.81
2022-08-22T07:04:11.368Z,68.72
2022-08-22T07:05:11.180Z,68.79
2022-08-22T07:06:11.187Z,68.80
2022-08-22T07:07:11.167Z,68.68
2022-08-22T07:08:11.175Z,68.55
2022-08-22T07:09:11.150Z,68.39
2022-08-22T07:10:11.290Z,68.33
2022-08-22T07:11:11.130Z,67.98
2022-08-22T07:12:11.120Z,67.69
2022-08-22T07:13:11.099Z,67.52
2022-08-22T07:14:11.099Z,67.54
2022-08-22T07:15:11.078Z,67.64
2022-08-22T07:16:11.347Z,67.55
2022-08-22T07:17:11.073Z,67.66
2022-08-22T07:18:11.074Z,67.45
2022-08-22T07:19:11.051Z,67.47
2022-08-22T07:20:11.052Z,67.43
2022-08-22T07:21:11.017Z,67.35
2022-08-22T07:22:11.191Z,67.26
2022-08-22T07:23:10.990Z,67.11
2022-08-22T07:24:10.986Z,67.01
2022-08-22T07:25:10.976Z,67.09
2022-08-22T07:26:10.968Z,66.76
2022-08-22T07:27:10.954Z,66.82
2022-08-22T07:28:15.860Z,66.95
2022-08-22T07:29:11.935Z,66.86
2022-08-22T07:30:10.939Z,66.68
2022-08-22T07:31:10.912Z,66.82
2022-08-22T07:32:10.943Z,66.90
2022-08-22T07:33:26.798Z,67.05
2022-08-22T07:34:12.031Z,66.51
2022-08-22T07:35:10.864Z,66.59
2022-08-22T07:36:10.861Z,66.23
2022-08-22T07:37:10.847Z,66.33
2022-08-22T07:38:10.841Z,66.58
2022-08-22T07:39:11.232Z,66.49
2022-08-22T07:40:11.050Z,65.93
2022-08-22T07:41:10.802Z,65.58
2022-08-22T07:42:10.809Z,65.22
2022-08-22T07:43:10.781Z,65.30
2022-08-22T07:44:10.773Z,65.60
2022-08-22T07:45:10.794Z,65.69
2022-08-22T07:46:10.755Z,65.25
2022-08-22T07:47:10.739Z,64.11
2022-08-22T07:48:10.732Z,63.77
2022-08-22T07:49:10.735Z,63.44
2022-08-22T07:50:10.711Z,63.46
2022-08-22T07:51:10.851Z,63.67
2022-08-22T07:52:10.701Z,63.50
2022-08-22T07:53:10.673Z,63.51
2022-08-22T07:54:10.662Z,63.62
2022-08-22T07:55:10.653Z,63.57
2022-08-22T07:56:11.382Z,63.56
2022-08-22T07:57:11.172Z,62.92
2022-08-22T07:58:10.634Z,62.11
2022-08-22T07:59:13.128Z,61.68
2022-08-22T08:00:10.634Z,61.55
2022-08-22T08:01:10.650Z,61.72
2022-08-22T08:02:10.615Z,61.40
2022-08-22T08:03:12.371Z,61.53
2022-08-22T08:04:10.564Z,61.56
2022-08-22T08:05:10.602Z,61.42
2022-08-22T08:06:10.541Z,61.26
2022-08-22T08:07:10.585Z,60.99
2022-08-22T08:08:15.544Z,61.00
2022-08-22T08:09:11.702Z,60.59
2022-08-22T08:10:13.152Z,60.06
2022-08-22T08:11:10.483Z,59.90
2022-08-22T08:12:10.481Z,59.47
2022-08-22T08:13:10.511Z,59.73
2022-08-22T08:14:13.503Z,59.82
2022-08-22T08:15:10.697Z,59.89
2022-08-22T08:16:10.446Z,59.74
2022-08-22T08:17:10.423Z,60.06
2022-08-22T08:18:10.435Z,59.89
2022-08-22T08:19:10.449Z,59.57
2022-08-22T08:20:10.393Z,59.35
2022-08-22T08:21:10.548Z,59.52
2022-08-22T08:22:10.374Z,59.11
2022-08-22T08:23:10.382Z,59.11
2022-08-22T08:24:10.354Z,58.67
2022-08-22T08:25:10.334Z,57.83
2022-08-22T08:26:10.490Z,57.34
2022-08-22T08:27:10.319Z,56.47
2022-08-22T08:28:10.318Z,56.56
2022-08-22T08:29:10.303Z,56.88
2022-08-22T08:30:15.084Z,56.58
2022-08-22T08:31:11.424Z,56.35
2022-08-22T08:32:10.275Z,55.97
2022-08-22T08:33:24.889Z,55.30
2022-08-22T08:34:11.253Z,54.82
2022-08-22T08:35:10.232Z,54.90
2022-08-22T08:36:10.224Z,54.90
2022-08-22T08:37:10.416Z,54.78
2022-08-22T08:38:10.206Z,55.09
2022-08-22T08:39:10.197Z,54.88
2022-08-22T08:40:10.243Z,53.84
2022-08-22T08:41:10.174Z,54.21
2022-08-22T08:42:10.158Z,54.11
2022-08-22T08:43:10.898Z,52.87
2022-08-22T08:44:10.137Z,53.21
2022-08-22T08:45:10.130Z,53.47
2022-08-22T08:46:10.114Z,53.86
2022-08-22T08:47:10.109Z,53.96
2022-08-22T08:48:10.341Z,52.89
2022-08-22T08:49:10.108Z,51.55
2022-08-22T08:50:10.075Z,51.12
2022-08-22T08:51:10.065Z,51.49
2022-08-22T08:52:10.045Z,51.25
2022-08-22T08:53:10.044Z,50.73
2022-08-22T08:54:10.180Z,50.02
2022-08-22T08:55:19.610Z,49.70
2022-08-22T08:56:11.026Z,49.70
2022-08-22T08:57:10.016Z,49.74
2022-08-22T08:58:10.257Z,49.91
2022-08-22T08:59:10.515Z,50.17
2022-08-22T09:00:09.966Z,50.33
2022-08-22T09:01:09.991Z,50.53
2022-08-22T09:02:13.716Z,51.24
2022-08-22T09:03:10.934Z,51.15
2022-08-22T09:04:15.355Z,51.21
2022-08-22T09:05:11.088Z,51.30
2022-08-22T09:06:09.916Z,51.27
2022-08-22T09:07:09.887Z,51.55
2022-08-22T09:08:11.888Z,51.52
2022-08-22T09:09:09.890Z,50.29
2022-08-22T09:10:09.878Z,50.26
2022-08-22T09:11:12.074Z,50.23
2022-08-22T09:12:09.846Z,50.41
2022-08-22T09:13:12.235Z,50.44
2022-08-22T09:14:09.815Z,50.59
2022-08-22T09:15:11.833Z,50.03
2022-08-22T09:16:10.097Z,49.89
2022-08-22T09:17:09.948Z,49.32
2022-08-22T09:18:09.767Z,48.66
2022-08-22T09:19:09.797Z,47.51
2022-08-22T09:20:17.985Z,47.56
2022-08-22T09:21:10.744Z,47.20
2022-08-22T09:22:14.211Z,47.54
2022-08-22T09:23:10.074Z,48.07
2022-08-22T09:24:09.798Z,47.77
2022-08-22T09:25:09.727Z,47.20
2022-08-22T09:26:09.682Z,47.57
2022-08-22T09:27:09.669Z,47.59
2022-08-22T09:28:09.937Z,48.04
2022-08-22T09:29:09.650Z,48.48
2022-08-22T09:30:11.743Z,48.44
2022-08-22T09:32:13.219Z,47.11
2022-08-22T09:33:09.620Z,46.46
2022-08-22T09:34:09.760Z,45.73
2022-08-22T09:35:09.601Z,45.76
2022-08-22T09:36:12.186Z,45.95
2022-08-22T09:37:09.568Z,46.27
2022-08-22T09:38:09.564Z,46.41
2022-08-22T09:39:09.708Z,46.58
2022-08-22T09:40:12.245Z,46.90
2022-08-22T09:41:10.520Z,46.94
2022-08-22T09:42:09.504Z,47.46
2022-08-22T09:43:09.493Z,47.01
2022-08-22T09:44:09.494Z,46.99
2022-08-22T09:45:09.649Z,46.44
2022-08-22T09:46:09.459Z,45.83
2022-08-22T09:47:09.461Z,45.77
2022-08-22T09:48:09.441Z,46.36
2022-08-22T09:49:09.436Z,46.23
2022-08-22T09:50:09.847Z,46.14
2022-08-22T09:51:31.691Z,46.27
2022-08-22T09:52:15.466Z,46.22
2022-08-22T09:53:10.431Z,46.56
2022-08-22T09:54:09.373Z,46.17
2022-08-22T09:55:09.368Z,46.81
2022-08-22T09:56:15.164Z,46.85
2022-08-22T09:57:10.348Z,46.39
2022-08-22T09:58:11.357Z,46.54
2022-08-22T09:59:09.782Z,47.10
2022-08-22T10:00:09.303Z,47.30
2022-08-22T10:01:09.355Z,47.11
2022-08-22T10:02:15.384Z,46.78
2022-08-22T10:03:10.314Z,47.07
2022-08-22T10:04:09.272Z,46.96
2022-08-22T10:05:09.298Z,46.79
2022-08-22T10:06:09.291Z,46.28
2022-08-22T10:07:11.956Z,45.50
2022-08-22T10:08:11.353Z,45.48
2022-08-22T10:09:09.303Z,45.18
2022-08-22T10:10:09.211Z,45.53
2022-08-22T10:11:09.213Z,44.87
2022-08-22T10:12:12.780Z,45.14
2022-08-22T10:13:10.503Z,45.22
2022-08-22T10:14:09.373Z,45.42
2022-08-22T10:15:09.161Z,45.62
2022-08-22T10:16:09.132Z,45.54
2022-08-22T10:17:09.123Z,45.57
2022-08-22T10:18:10.469Z,45.61
2022-08-22T10:19:09.112Z,45.77
2022-08-22T10:20:09.442Z,46.00
2022-08-22T10:21:09.130Z,46.06
2022-08-22T10:22:09.079Z,46.00
2022-08-22T10:23:09.073Z,46.15
2022-08-22T10:24:09.058Z,46.18
2022-08-22T10:25:09.074Z,45.78
2022-08-22T10:26:09.191Z,45.82
2022-08-22T10:27:09.041Z,46.25
2022-08-22T10:28:10.592Z,45.89
2022-08-22T10:29:09.004Z,45.80
2022-08-22T10:30:09.004Z,45.73
2022-08-22T10:31:09.202Z,45.51
2022-08-22T10:32:10.795Z,44.27
2022-08-22T10:33:12.170Z,44.07
2022-08-22T10:34:08.947Z,44.39
2022-08-22T10:35:08.947Z,43.80
2022-08-22T10:36:11.779Z,44.25
2022-08-22T10:37:10.299Z,44.70
2022-08-22T10:38:10.618Z,44.76
2022-08-22T10:39:11.659Z,45.63
2022-08-22T10:40:08.940Z,45.78
2022-08-22T10:41:09.680Z,45.61
2022-08-22T10:42:08.866Z,45.35
2022-08-22T10:43:09.373Z,44.93
2022-08-22T10:44:08.845Z,44.26
2022-08-22T10:45:08.826Z,44.28
2022-08-22T10:46:12.341Z,43.75
2022-08-22T10:47:08.814Z,44.11
2022-08-22T10:48:09.041Z,44.44
2022-08-22T10:49:08.946Z,44.44
2022-08-22T10:50:11.484Z,44.73
2022-08-22T10:51:09.855Z,44.49
2022-08-22T10:52:15.731Z,44.26
2022-08-22T10:53:09.761Z,45.39
2022-08-22T10:54:09.107Z,44.41
2022-08-22T10:55:09.696Z,43.57
2022-08-22T10:56:08.726Z,43.33
2022-08-22T10:57:08.708Z,44.09
2022-08-22T10:58:08.716Z,44.01
2022-08-22T10:59:08.692Z,44.52
2022-08-22T11:00:08.827Z,44.04
2022-08-22T11:01:41.599Z,43.74
2022-08-22T11:02:09.753Z,43.76
2022-08-22T11:03:10.933Z,44.10
2022-08-22T11:04:09.679Z,44.05
2022-08-22T11:05:08.691Z,45.08
2022-08-22T11:06:08.801Z,44.42
2022-08-22T11:07:09.313Z,44.21
2022-08-22T11:08:08.695Z,44.49
2022-08-22T11:09:08.652Z,45.98
2022-08-22T11:10:08.620Z,46.65
2022-08-22T11:11:08.910Z,44.69
2022-08-22T11:12:08.614Z,44.20
2022-08-22T11:13:08.644Z,44.09
2022-08-22T11:14:08.592Z,44.04
2022-08-22T11:15:08.592Z,43.77
2022-08-22T11:16:08.562Z,43.44
2022-08-22T11:17:27.353Z,43.08
2022-08-22T11:18:10.743Z,43.11
2022-08-22T11:19:15.487Z,42.70
2022-08-22T11:20:09.509Z,42.77
2022-08-22T11:21:08.521Z,42.90
2022-08-22T11:22:08.508Z,43.22
2022-08-22T11:23:12.482Z,43.24
2022-08-22T11:24:08.493Z,43.34
2022-08-22T11:25:11.298Z,43.12
2022-08-22T11:26:08.425Z,42.57
2022-08-22T11:27:08.453Z,42.42
2022-08-22T11:28:08.424Z,42.79
2022-08-22T11:29:14.035Z,43.49
2022-08-22T11:30:09.411Z,43.26
2022-08-22T11:31:08.331Z,43.31
2022-08-22T11:32:08.329Z,43.23
2022-08-22T11:33:08.443Z,42.95
2022-08-22T11:34:08.299Z,42.95
2022-08-22T11:35:09.323Z,42.77
2022-08-22T11:36:08.287Z,42.44
2022-08-22T11:37:11.705Z,42.19
2022-08-22T11:38:10.971Z,42.55
2022-08-22T11:39:13.758Z,42.66
2022-08-22T11:40:11.841Z,42.85
2022-08-22T11:41:08.228Z,42.67
2022-08-22T11:42:08.222Z,42.89
2022-08-22T11:43:08.380Z,43.24
2022-08-22T11:44:09.190Z,43.96
2022-08-22T11:45:08.184Z,43.77
2022-08-22T11:46:08.183Z,43.21
2022-08-22T11:47:08.171Z,43.21
2022-08-22T11:48:08.177Z,43.01
2022-08-22T11:49:08.307Z,43.14
2022-08-22T11:50:13.952Z,43.08
2022-08-22T11:51:13.287Z,42.96
2022-08-22T11:52:08.541Z,43.18
2022-08-22T11:53:08.112Z,43.43
2022-08-22T11:54:08.503Z,43.42
2022-08-22T11:55:08.089Z,43.41
2022-08-22T11:56:08.064Z,43.72
2022-08-22T11:57:08.075Z,43.91
2022-08-22T11:58:08.045Z,43.94
2022-08-22T11:59:08.034Z,43.67
2022-08-22T12:00:08.219Z,44.02
2022-08-22T12:01:11.758Z,43.71
2022-08-22T12:02:09.089Z,43.64
2022-08-22T12:03:08.006Z,43.58
2022-08-22T12:04:09.851Z,43.58
2022-08-22T12:05:07.973Z,43.86
2022-08-22T12:06:08.136Z,43.28
2022-08-22T12:07:07.953Z,43.50
2022-08-22T12:08:07.938Z,43.59
2022-08-22T12:09:07.924Z,43.96
2022-08-22T12:10:07.915Z,43.88
2022-08-22T12:11:09.064Z,44.63
2022-08-22T12:12:07.905Z,44.08
2022-08-22T12:13:07.885Z,43.65
2022-08-22T12:14:07.874Z,43.56
2022-08-22T12:15:08.899Z,43.30
2022-08-22T12:16:07.895Z,43.51
2022-08-22T12:17:08.124Z,43.50
2022-08-22T12:18:07.833Z,44.32
2022-08-22T12:19:07.828Z,43.94
2022-08-22T12:20:16.993Z,43.53
2022-08-22T12:21:09.110Z,43.82
2022-08-22T12:22:07.791Z,43.80
2022-08-22T12:23:07.981Z,43.86
2022-08-22T12:24:11.309Z,44.04
2022-08-22T12:25:08.767Z,44.36
2022-08-22T12:26:10.803Z,43.98
2022-08-22T12:27:08.147Z,43.89
2022-08-22T12:28:07.716Z,43.53
2022-08-22T12:29:15.213Z,43.34
2022-08-22T12:30:15.158Z,43.20
2022-08-22T12:31:08.700Z,43.11
2022-08-22T12:32:07.759Z,43.06
2022-08-22T12:33:07.679Z,43.63
2022-08-22T12:34:07.657Z,43.35
2022-08-22T12:35:13.701Z,43.08
2022-08-22T12:36:09.525Z,44.12
2022-08-22T12:37:08.627Z,43.41
2022-08-22T12:38:28.390Z,43.52
2022-08-22T12:39:08.607Z,43.25
2022-08-22T12:40:07.665Z,43.36
2022-08-22T12:41:08.212Z,43.34
2022-08-22T12:42:07.736Z,44.45
2022-08-22T12:43:07.566Z,43.64
2022-08-22T12:44:07.559Z,45.29
2022-08-22T12:45:08.544Z,45.91
2022-08-22T12:46:07.542Z,45.38
2022-08-22T12:47:09.206Z,43.68
2022-08-22T12:48:07.503Z,43.92
2022-08-22T12:49:08.111Z,43.47
2022-08-22T12:50:07.495Z,42.99
2022-08-22T12:51:17.409Z,43.00
2022-08-22T12:52:08.466Z,43.18
2022-08-22T12:53:07.614Z,44.19
2022-08-22T12:54:07.462Z,44.12